createdAt,value
2019-02-28T00:02:29.367Z,1.00
2019-02-28T00:05:05.795Z,1.00
2019-02-28T00:07:41.436Z,1.00
2019-02-28T00:10:14.416Z,1.00
2019-02-28T00:12:49.864Z,1.00
2019-02-28T00:15:25.816Z,1.00
2019-02-28T00:17:59.945Z,1.00
2019-02-28T00:20:31.873Z,1.00
2019-02-28T00:23:03.361Z,1.00
2019-02-28T00:25:38.032Z,1.00
2019-02-28T00:28:09.738Z,1.00
2019-02-28T00:30:43.286Z,1.00
2019-02-28T00:33:21.113Z,1.00
2019-02-28T00:35:52.342Z,1.00
2019-02-28T00:38:29.485Z,1.00
2019-02-28T00:41:04.374Z,1.00
2019-02-28T00:43:37.557Z,1.00
2019-02-28T00:46:10.164Z,1.00
2019-02-28T00:48:46.403Z,1.00
2019-02-28T00:51:21.202Z,1.00
2019-02-28T00:53:56.955Z,1.00
2019-02-28T00:56:27.290Z,1.00
2019-02-28T00:59:00.539Z,1.00
2019-02-28T01:01:31.246Z,1.00
2019-02-28T01:04:07.082Z,1.00
2019-02-28T01:06:41.743Z,1.00
2019-02-28T01:09:21.047Z,1.00
2019-02-28T01:11:54.383Z,1.00
2019-02-28T01:14:35.799Z,1.00
2019-02-28T01:17:07.480Z,1.00
2019-02-28T01:19:41.288Z,1.10
2019-02-28T01:22:12.726Z,1.00
2019-02-28T01:24:44.208Z,1.10
2019-02-28T01:27:13.048Z,1.00
2019-02-28T01:29:43.218Z,1.00
2019-02-28T01:32:24.467Z,1.00
2019-02-28T01:34:57.078Z,1.00
2019-02-28T01:37:28.139Z,1.00
2019-02-28T01:40:01.034Z,1.20
2019-02-28T01:42:34.569Z,1.70
2019-02-28T01:45:09.946Z,1.40
2019-02-28T01:47:39.946Z,1.90
2019-02-28T01:50:12.421Z,2.00
2019-02-28T01:52:45.885Z,2.80
2019-02-28T01:55:20.442Z,2.70
2019-02-28T01:57:52.097Z,2.50
2019-02-28T02:00:24.505Z,2.70
2019-02-28T02:03:00.976Z,2.50
2019-02-28T02:05:33.985Z,2.90
2019-02-28T02:08:10.734Z,3.70
2019-02-28T02:10:44.814Z,2.90
2019-02-28T02:13:20.118Z,3.00
2019-02-28T02:16:00.279Z,3.00
2019-02-28T02:18:36.370Z,3.30
2019-02-28T02:21:10.355Z,3.40
2019-02-28T02:23:44.003Z,3.90
2019-02-28T02:26:14.481Z,2.90
2019-02-28T02:28:46.906Z,3.20
2019-02-28T02:31:19.543Z,3.30
2019-02-28T02:33:52.617Z,3.10
2019-02-28T02:36:28.754Z,3.50
2019-02-28T02:39:00.585Z,3.40
2019-02-28T02:41:33.271Z,1.80
2019-02-28T02:44:02.581Z,3.10
2019-02-28T02:46:32.630Z,2.60
2019-02-28T02:49:03.051Z,2.80
2019-02-28T02:51:35.231Z,2.80
2019-02-28T02:54:09.725Z,3.00
2019-02-28T02:56:44.717Z,2.20
2019-02-28T02:59:15.920Z,2.10
2019-02-28T03:01:44.963Z,2.70
2019-02-28T03:04:21.418Z,2.40
2019-02-28T03:06:49.076Z,2.70
2019-02-28T03:09:20.768Z,2.80
2019-02-28T03:11:53.232Z,2.90
2019-02-28T03:14:26.990Z,2.50
2019-02-28T03:16:58.515Z,2.30
2019-02-28T03:19:34.699Z,2.30
2019-02-28T03:22:03.396Z,2.40
2019-02-28T03:24:34.599Z,2.40
2019-02-28T03:27:08.968Z,2.50
2019-02-28T03:29:43.926Z,2.60
2019-02-28T03:32:14.477Z,1.70
2019-02-28T03:37:40.484Z,2.00
2019-02-28T03:40:12.331Z,1.60
2019-02-28T03:42:53.391Z,1.00
2019-02-28T03:45:33.895Z,1.00
2019-02-28T03:47:58.915Z,1.30
2019-02-28T03:50:34.141Z,1.00
2019-02-28T03:53:10.795Z,1.80
2019-02-28T03:55:44.102Z,1.80
2019-02-28T03:58:17.121Z,1.90
2019-02-28T04:00:48.182Z,2.20
2019-02-28T04:03:24.427Z,2.20
2019-02-28T04:05:53.275Z,1.80
2019-02-28T04:08:30.457Z,1.80
2019-02-28T04:11:03.735Z,2.00
2019-02-28T04:13:37.111Z,1.00
2019-02-28T04:16:10.028Z,1.10
2019-02-28T04:18:50.654Z,1.00
2019-02-28T04:21:17.447Z,1.00
2019-02-28T04:23:46.842Z,1.20
2019-02-28T04:26:20.790Z,1.60
2019-02-28T04:28:54.676Z,2.60
2019-02-28T04:31:40.637Z,2.20
2019-02-28T04:34:13.308Z,3.90
2019-02-28T04:36:44.542Z,2.40
2019-02-28T04:39:19.001Z,2.90
2019-02-28T04:41:49.127Z,2.10
2019-02-28T04:44:19.977Z,1.60
2019-02-28T04:47:03.463Z,2.20
2019-02-28T04:49:32.027Z,2.00
2019-02-28T04:52:01.890Z,2.90
2019-02-28T04:54:34.728Z,2.40
2019-02-28T04:57:10.292Z,2.70
2019-02-28T04:59:40.953Z,2.50
2019-02-28T05:02:14.203Z,2.70
2019-02-28T05:05:12.354Z,2.30
2019-02-28T05:08:38.913Z,2.50
2019-02-28T05:11:11.958Z,2.00
2019-02-28T05:13:48.851Z,2.30
2019-02-28T05:16:24.059Z,1.80
2019-02-28T05:18:58.173Z,2.40
2019-02-28T05:21:46.823Z,1.80
2019-02-28T05:24:21.609Z,2.60
2019-02-28T05:27:03.444Z,2.50
2019-02-28T05:29:36.979Z,2.30
2019-02-28T05:32:08.762Z,2.30
2019-02-28T05:34:42.058Z,2.60
2019-02-28T05:37:25.755Z,2.90
2019-02-28T05:40:05.613Z,2.40
2019-02-28T05:42:38.537Z,2.70
2019-02-28T05:45:14.475Z,2.40
2019-02-28T05:47:46.346Z,2.30
2019-02-28T05:50:16.791Z,2.80
2019-02-28T05:52:47.515Z,2.40
2019-02-28T05:55:26.468Z,3.30
2019-02-28T05:58:00.330Z,2.20
2019-02-28T06:00:29.672Z,2.00
2019-02-28T06:03:03.821Z,2.70
2019-02-28T06:05:34.070Z,2.30
2019-02-28T06:08:09.997Z,2.60
2019-02-28T06:10:40.150Z,3.90
2019-02-28T06:13:15.396Z,3.30
2019-02-28T06:15:47.826Z,3.30
2019-02-28T06:18:20.071Z,3.30
2019-02-28T06:20:52.193Z,3.40
2019-02-28T06:23:24.186Z,2.20
2019-02-28T06:25:59.252Z,3.80
2019-02-28T06:28:34.602Z,3.70
2019-02-28T06:31:01.771Z,3.70
2019-02-28T06:33:33.595Z,4.50
2019-02-28T06:36:05.715Z,4.20
2019-02-28T06:38:39.586Z,4.20
2019-02-28T06:41:11.309Z,4.30
2019-02-28T06:43:46.110Z,4.70
2019-02-28T06:46:20.968Z,4.40
2019-02-28T06:48:52.666Z,4.10
2019-02-28T06:51:24.862Z,4.20
2019-02-28T06:53:58.692Z,4.20
2019-02-28T06:56:27.892Z,4.20
2019-02-28T06:58:59.856Z,3.90
2019-02-28T07:01:34.009Z,3.70
2019-02-28T07:04:04.630Z,3.70
2019-02-28T07:06:37.378Z,3.80
2019-02-28T07:09:10.231Z,3.90
2019-02-28T07:11:41.720Z,3.80
2019-02-28T07:14:13.782Z,3.70
2019-02-28T07:16:44.598Z,3.40
2019-02-28T07:19:17.247Z,3.30
2019-02-28T07:21:54.002Z,3.90
2019-02-28T07:24:28.114Z,3.70
2019-02-28T07:27:00.035Z,3.70
2019-02-28T07:29:32.221Z,3.30
2019-02-28T07:32:02.379Z,3.30
2019-02-28T07:34:33.658Z,3.40
2019-02-28T07:37:03.642Z,3.40
2019-02-28T07:39:40.463Z,3.80
2019-02-28T07:42:08.631Z,4.30
2019-02-28T07:44:39.089Z,3.90
2019-02-28T07:47:17.127Z,4.30
2019-02-28T07:49:45.572Z,4.30
2019-02-28T07:52:15.846Z,4.60
2019-02-28T07:54:51.835Z,4.50
2019-02-28T07:57:25.211Z,4.70
2019-02-28T07:59:55.442Z,5.00
2019-02-28T08:02:27.847Z,4.90
2019-02-28T08:05:02.949Z,5.40
2019-02-28T08:10:27.374Z,5.40
2019-02-28T08:13:04.201Z,5.10
2019-02-28T08:15:34.591Z,5.50
2019-02-28T08:18:09.490Z,4.80
2019-02-28T08:20:50.276Z,3.90
2019-02-28T08:23:24.868Z,5.00
2019-02-28T08:25:55.449Z,5.00
2019-02-28T08:28:29.489Z,5.10
2019-02-28T08:31:01.607Z,4.50
2019-02-28T08:33:39.765Z,5.00
2019-02-28T08:36:12.534Z,5.10
2019-02-28T08:38:43.782Z,4.90
2019-02-28T08:41:17.625Z,5.10
2019-02-28T08:43:54.690Z,5.10
2019-02-28T08:46:27.340Z,4.90
2019-02-28T08:49:00.026Z,4.80
2019-02-28T08:51:33.910Z,4.90
2019-02-28T08:54:09.585Z,5.00
2019-02-28T08:56:49.115Z,4.60
2019-02-28T08:59:18.370Z,4.30
2019-02-28T09:01:51.133Z,4.70
2019-02-28T09:04:20.490Z,4.70
2019-02-28T09:06:50.314Z,4.60
2019-02-28T09:09:19.622Z,4.90
2019-02-28T09:11:57.827Z,5.10
2019-02-28T09:14:29.547Z,5.30
2019-02-28T09:17:02.051Z,4.70
2019-02-28T09:19:32.589Z,4.70
2019-02-28T09:22:04.852Z,4.70
2019-02-28T09:24:40.763Z,4.10
2019-02-28T09:27:12.474Z,4.30
2019-02-28T09:29:54.527Z,4.10
2019-02-28T09:32:27.498Z,3.90
2019-02-28T09:35:02.570Z,4.30
2019-02-28T09:37:32.173Z,4.70
2019-02-28T09:40:11.469Z,4.60
2019-02-28T09:42:44.566Z,4.00
2019-02-28T09:45:16.417Z,3.60
2019-02-28T09:47:45.712Z,4.00
2019-02-28T09:50:19.317Z,3.60
2019-02-28T09:52:50.112Z,3.30
2019-02-28T09:55:24.437Z,3.60
2019-02-28T09:57:59.637Z,3.40
2019-02-28T10:00:30.346Z,3.40
2019-02-28T10:03:03.403Z,3.20
2019-02-28T10:05:33.847Z,3.20
2019-02-28T10:08:10.169Z,3.10
2019-02-28T10:10:42.909Z,3.00
2019-02-28T10:13:18.322Z,2.70
2019-02-28T10:15:50.640Z,2.50
2019-02-28T10:18:20.170Z,2.80
2019-02-28T10:20:52.785Z,2.10
2019-02-28T10:23:23.143Z,2.00
2019-02-28T10:25:55.202Z,2.60
2019-02-28T10:28:26.928Z,2.00
2019-02-28T10:31:02.063Z,2.30
2019-02-28T10:33:33.405Z,2.20
2019-02-28T10:36:12.868Z,2.10
2019-02-28T10:38:44.194Z,1.80
2019-02-28T10:41:15.431Z,2.60
2019-02-28T10:43:55.621Z,2.20
2019-02-28T10:46:24.037Z,2.30
2019-02-28T10:48:59.617Z,1.90
2019-02-28T10:51:40.073Z,2.00
2019-02-28T10:54:11.254Z,2.10
2019-02-28T10:56:42.157Z,2.00
2019-02-28T10:59:16.590Z,2.10
2019-02-28T11:01:48.420Z,2.00
2019-02-28T11:04:18.718Z,1.80
2019-02-28T11:06:48.612Z,1.70
2019-02-28T11:09:29.150Z,1.80
2019-02-28T11:12:00.281Z,1.00
2019-02-28T11:14:31.908Z,1.90
2019-02-28T11:17:02.943Z,1.60
2019-02-28T11:19:35.358Z,2.10
2019-02-28T11:22:06.039Z,1.20
2019-02-28T11:24:41.171Z,2.20
2019-02-28T11:27:13.217Z,1.10
2019-02-28T11:29:49.027Z,1.20
2019-02-28T11:32:19.577Z,1.10
2019-02-28T11:34:52.344Z,1.10
2019-02-28T11:37:22.475Z,1.00
2019-02-28T11:39:54.601Z,1.00
2019-02-28T11:42:34.112Z,1.00
2019-02-28T11:48:01.722Z,1.00
2019-02-28T11:50:33.676Z,1.00
2019-02-28T11:53:06.211Z,1.00
2019-02-28T11:55:39.169Z,1.00
2019-02-28T11:58:10.183Z,1.10
2019-02-28T12:00:41.249Z,1.00
2019-02-28T12:03:16.701Z,1.00
2019-02-28T12:05:49.923Z,1.70
2019-02-28T12:08:23.061Z,2.40
2019-02-28T12:10:58.325Z,1.30
2019-02-28T12:13:31.424Z,1.00
2019-02-28T12:16:05.297Z,1.00
2019-02-28T12:18:41.908Z,1.30
2019-02-28T12:21:14.463Z,1.00
2019-02-28T12:23:45.309Z,2.70
2019-02-28T12:26:18.786Z,3.30
2019-02-28T12:28:54.374Z,2.60
2019-02-28T12:31:24.346Z,2.50
2019-02-28T12:34:05.811Z,2.10
2019-02-28T12:36:36.924Z,1.40
2019-02-28T12:39:09.606Z,2.60
2019-02-28T12:41:42.358Z,2.60
2019-02-28T12:44:15.405Z,2.80
2019-02-28T12:46:49.145Z,3.40
2019-02-28T12:49:26.083Z,3.60
2019-02-28T12:51:54.055Z,3.90
2019-02-28T12:54:26.023Z,3.70
2019-02-28T12:57:00.648Z,4.10
2019-02-28T12:59:34.837Z,4.30
2019-02-28T13:02:08.456Z,4.40
2019-02-28T13:04:38.125Z,4.60
2019-02-28T13:07:10.327Z,4.80
2019-02-28T13:09:43.464Z,4.60
2019-02-28T13:12:15.861Z,4.90
2019-02-28T13:14:49.223Z,5.30
2019-02-28T13:17:20.979Z,5.40
2019-02-28T13:19:56.515Z,5.50
2019-02-28T13:22:26.582Z,5.60
2019-02-28T13:24:58.200Z,5.60
2019-02-28T13:27:29.124Z,5.90
2019-02-28T13:30:00.374Z,6.30
2019-02-28T13:32:33.803Z,7.10
2019-02-28T13:35:09.237Z,7.00
2019-02-28T13:37:41.916Z,7.90
2019-02-28T13:40:13.639Z,8.60
2019-02-28T13:42:48.853Z,8.10
2019-02-28T13:45:23.116Z,7.30
2019-02-28T13:47:57.215Z,8.90
2019-02-28T13:50:35.304Z,8.90
2019-02-28T13:53:19.149Z,9.50
2019-02-28T13:55:52.574Z,9.80
2019-02-28T13:58:25.741Z,9.90
2019-02-28T14:01:00.326Z,10.60
2019-02-28T14:03:42.158Z,10.90
2019-02-28T14:06:12.228Z,11.00
2019-02-28T14:08:46.253Z,11.00
2019-02-28T14:11:18.915Z,11.30
2019-02-28T14:13:53.028Z,11.30
2019-02-28T14:16:26.910Z,11.70
2019-02-28T14:18:58.682Z,10.00
2019-02-28T14:21:34.356Z,10.70
2019-02-28T14:24:06.728Z,10.60
2019-02-28T14:26:42.801Z,10.60
2019-02-28T14:29:13.009Z,10.10
2019-02-28T14:31:46.567Z,10.90
2019-02-28T14:34:18.816Z,10.70
2019-02-28T14:36:51.120Z,10.50
2019-02-28T14:39:24.990Z,10.90
2019-02-28T14:41:56.088Z,10.20
2019-02-28T14:44:32.686Z,10.60
2019-02-28T14:47:20.036Z,10.60
2019-02-28T14:49:53.480Z,10.90
2019-02-28T14:52:26.929Z,10.20
2019-02-28T14:54:58.342Z,10.60
2019-02-28T14:57:30.109Z,10.70
2019-02-28T15:00:06.294Z,10.60
2019-02-28T15:02:50.688Z,10.90
2019-02-28T15:05:21.534Z,10.10
2019-02-28T15:07:54.118Z,10.40
2019-02-28T15:10:28.350Z,9.80
2019-02-28T15:13:00.731Z,10.20
2019-02-28T15:15:30.995Z,9.30
2019-02-28T15:18:00.568Z,8.90
2019-02-28T15:20:34.697Z,9.40
2019-02-28T15:23:04.201Z,8.60
2019-02-28T15:25:39.323Z,8.20
2019-02-28T15:28:14.780Z,8.30
2019-02-28T15:30:45.649Z,8.30
2019-02-28T15:33:18.847Z,6.20
2019-02-28T15:35:49.736Z,7.90
2019-02-28T15:38:25.819Z,7.90
2019-02-28T15:40:58.774Z,7.60
2019-02-28T15:46:18.316Z,6.90
2019-02-28T15:48:54.165Z,6.40
2019-02-28T15:51:25.657Z,6.70
2019-02-28T15:53:56.987Z,5.60
2019-02-28T15:56:28.221Z,5.30
2019-02-28T15:59:03.390Z,3.70
2019-02-28T16:01:36.856Z,4.10
2019-02-28T16:04:11.291Z,3.10
2019-02-28T16:06:40.897Z,2.90
2019-02-28T16:09:11.994Z,2.80
2019-02-28T16:11:43.006Z,1.00
2019-02-28T16:14:15.323Z,1.00
2019-02-28T16:16:50.576Z,1.00
2019-02-28T16:19:25.139Z,1.00
2019-02-28T16:22:05.034Z,1.00
2019-02-28T16:24:39.812Z,1.00
2019-02-28T16:27:10.865Z,1.00
2019-02-28T16:29:46.377Z,1.00
2019-02-28T16:32:18.123Z,1.00
2019-02-28T16:34:48.823Z,1.00
2019-02-28T16:37:22.857Z,1.00
2019-02-28T16:40:04.537Z,1.00
2019-02-28T16:42:35.625Z,1.00
2019-02-28T16:45:07.791Z,1.00
2019-02-28T16:47:47.339Z,1.00
2019-02-28T16:50:18.831Z,1.00
2019-02-28T16:52:52.412Z,1.00
2019-02-28T16:55:27.455Z,1.00
2019-02-28T16:58:00.139Z,1.00
2019-02-28T17:00:31.877Z,1.00
2019-02-28T17:03:04.174Z,1.00
2019-02-28T17:05:35.070Z,1.00
2019-02-28T17:08:09.152Z,1.00
2019-02-28T17:10:43.352Z,1.00
2019-02-28T17:13:19.940Z,1.00
2019-02-28T17:16:13.975Z,1.00
2019-02-28T17:18:45.668Z,1.00
2019-02-28T17:21:18.205Z,1.00
2019-02-28T17:23:51.794Z,1.00
2019-02-28T17:26:28.373Z,1.00
2019-02-28T17:29:00.210Z,1.00
2019-02-28T17:31:44.680Z,1.00
2019-02-28T17:34:24.331Z,1.00
2019-02-28T17:37:01.321Z,1.00
2019-02-28T17:39:30.746Z,1.00
2019-02-28T17:44:52.773Z,1.00
2019-02-28T17:47:50.886Z,1.00
2019-02-28T17:50:46.448Z,1.00
2019-02-28T17:53:51.073Z,1.00
2019-02-28T17:56:59.741Z,1.00
2019-02-28T17:59:51.291Z,1.00
2019-02-28T18:02:44.570Z,1.00
2019-02-28T18:05:36.531Z,1.00
2019-02-28T18:08:32.269Z,1.00
2019-02-28T18:11:25.442Z,1.00
2019-02-28T18:14:13.079Z,1.00
2019-02-28T18:17:03.533Z,1.00
2019-02-28T18:19:43.089Z,1.00
2019-02-28T18:22:35.744Z,1.00
2019-02-28T18:25:21.738Z,1.00
2019-02-28T18:28:18.955Z,1.00
2019-02-28T18:31:11.999Z,1.00
2019-02-28T18:33:47.287Z,1.00
2019-02-28T18:36:19.992Z,1.00
2019-02-28T18:38:49.486Z,1.00
2019-02-28T18:41:25.434Z,1.00
2019-02-28T18:43:59.974Z,1.00
2019-02-28T18:46:31.577Z,1.00
2019-02-28T18:49:06.638Z,1.00
2019-02-28T18:51:36.974Z,1.00
2019-02-28T18:54:09.091Z,1.00
2019-02-28T18:56:42.857Z,1.00
2019-02-28T18:59:13.083Z,1.00
2019-02-28T19:01:44.695Z,1.00
2019-02-28T19:04:17.397Z,1.00
2019-02-28T19:06:51.231Z,1.00
2019-02-28T19:09:28.459Z,1.00
2019-02-28T19:12:02.099Z,1.00
2019-02-28T19:14:36.493Z,1.00
2019-02-28T19:17:12.253Z,1.00
2019-02-28T19:19:42.836Z,1.00
2019-02-28T19:22:13.350Z,1.00
2019-02-28T19:24:45.812Z,1.00
2019-02-28T19:27:15.783Z,1.00
2019-02-28T19:29:45.719Z,1.00
2019-02-28T19:32:17.227Z,1.00
2019-02-28T19:34:54.457Z,1.00
2019-02-28T19:37:27.120Z,1.00
2019-02-28T19:40:01.435Z,1.00
2019-02-28T19:42:32.936Z,1.00
2019-02-28T19:45:06.528Z,1.00
2019-02-28T19:47:40.968Z,1.00
2019-02-28T19:50:14.984Z,1.00
2019-02-28T19:52:44.604Z,1.00
2019-02-28T19:55:15.372Z,1.00
2019-02-28T19:57:47.795Z,1.00
2019-02-28T20:00:20.434Z,1.00
2019-02-28T20:02:51.700Z,1.00
2019-02-28T20:05:24.547Z,1.00
2019-02-28T20:07:59.975Z,1.00
2019-02-28T20:10:34.657Z,1.00
2019-02-28T20:13:06.735Z,1.00
2019-02-28T20:15:40.168Z,1.00
2019-02-28T20:18:10.594Z,1.00
2019-02-28T20:20:41.667Z,1.00
2019-02-28T20:23:13.204Z,1.00
2019-02-28T20:25:47.002Z,1.00
2019-02-28T20:28:20.955Z,1.00
2019-02-28T20:30:51.296Z,1.00
2019-02-28T20:33:22.592Z,1.00
2019-02-28T20:35:52.197Z,1.00
2019-02-28T20:38:27.464Z,1.00
2019-02-28T20:40:58.533Z,1.00
2019-02-28T20:43:29.351Z,1.00
2019-02-28T20:46:01.171Z,1.00
2019-02-28T20:48:37.631Z,1.00
2019-02-28T20:51:07.500Z,1.00
2019-02-28T20:53:43.809Z,1.00
2019-02-28T20:56:22.045Z,1.00
2019-02-28T20:58:51.677Z,1.00
2019-02-28T21:01:24.374Z,1.00
2019-02-28T21:04:05.662Z,1.00
2019-02-28T21:06:35.000Z,1.00
2019-02-28T21:09:10.208Z,1.00
2019-02-28T21:11:41.338Z,1.00
2019-02-28T21:14:20.695Z,1.00
2019-02-28T21:16:53.183Z,1.00
2019-02-28T21:19:24.053Z,1.00
2019-02-28T21:21:54.641Z,1.00
2019-02-28T21:24:27.146Z,1.00
2019-02-28T21:26:56.296Z,1.00
2019-02-28T21:29:30.827Z,1.00
2019-02-28T21:32:03.012Z,1.00
2019-02-28T21:34:36.259Z,1.00
2019-02-28T21:37:10.415Z,1.00
2019-02-28T21:39:41.907Z,1.00
2019-02-28T21:42:17.807Z,1.00
2019-02-28T21:44:51.201Z,1.00
2019-02-28T21:47:21.565Z,1.00
2019-02-28T21:49:50.755Z,1.00
2019-02-28T21:52:28.704Z,1.00
2019-02-28T21:57:50.924Z,1.00
2019-02-28T22:00:32.454Z,1.00
2019-02-28T22:03:07.368Z,1.00
2019-02-28T22:05:41.639Z,1.00
2019-02-28T22:08:11.453Z,1.00
2019-02-28T22:10:42.517Z,1.00
2019-02-28T22:13:17.101Z,1.00
2019-02-28T22:15:51.421Z,1.00
2019-02-28T22:21:17.761Z,1.00
2019-02-28T22:23:48.808Z,1.00
2019-02-28T22:26:26.922Z,1.00
2019-02-28T22:29:09.481Z,1.00
2019-02-28T22:31:59.258Z,1.00
2019-02-28T22:34:33.699Z,1.00
2019-02-28T22:37:08.505Z,1.00
2019-02-28T22:39:40.323Z,1.00
2019-02-28T22:42:21.693Z,1.00
2019-02-28T22:44:45.527Z,2.00
2019-02-28T22:47:20.691Z,4.70
2019-02-28T22:49:52.820Z,6.60
2019-02-28T22:52:24.913Z,7.90
2019-02-28T22:54:58.996Z,9.90
2019-02-28T22:57:32.413Z,11.20
2019-02-28T23:00:11.317Z,12.20
2019-02-28T23:02:43.768Z,13.00
2019-02-28T23:05:20.123Z,14.00
2019-02-28T23:07:52.591Z,13.00
2019-02-28T23:10:22.322Z,13.80
2019-02-28T23:12:53.900Z,14.20
2019-02-28T23:15:30.491Z,13.70
2019-02-28T23:18:05.498Z,11.50
2019-02-28T23:20:42.372Z,9.50
2019-02-28T23:23:13.227Z,10.40
2019-02-28T23:25:43.425Z,11.10
2019-02-28T23:28:22.361Z,12.40
2019-02-28T23:31:26.813Z,11.10
2019-02-28T23:34:01.528Z,11.30
2019-02-28T23:36:33.733Z,9.30
2019-02-28T23:39:06.475Z,13.20
2019-02-28T23:41:37.510Z,11.30
2019-02-28T23:44:11.432Z,12.40
2019-02-28T23:46:42.122Z,16.30
2019-02-28T23:49:16.945Z,9.70
2019-02-28T23:51:48.758Z,9.30
2019-02-28T23:54:22.853Z,11.30
2019-02-28T23:56:56.897Z,13.30
2019-02-28T23:59:29.354Z,10.30
